Carmen — SMGW — position and weather

sailwx.info

Track history (hours):
 
Tides and Currents Weather Stations Pressure Air Temp Water Temp Dewpoint Dewpoint Depression Visibility Wind Speed Wind Dir Waves Ship Positions

Carmen

Last reported at 2016-Apr-29 21:33 UTC. Time now 2016-Apr-29 21:37 UTC.
Position N 55°42' E 012°55'.

Length 228 m; draft 7.2 m.

Type: Cargo ship. MMSI: 266339000.

Date/timePositionNaut miles runAvg speedWind from/ knotsBaromVisibWave heightAir tempDewpointWater temp
2016-Apr-29 21:33N 55°42' E 012°55'0 0.0
2016-Apr-29 20:33N 55°42' E 012°55'0 0.0
2016-Apr-29 19:33N 55°42' E 012°55'0 0.0
2016-Apr-29 18:33N 55°42' E 012°55'0 0.0
2016-Apr-29 17:34N 55°42' E 012°55'0 0.0
2016-Apr-29 16:33N 55°42' E 012°55'0 0.0
2016-Apr-29 15:33N 55°42' E 012°55'0 0.0
2016-Apr-29 14:33N 55°42' E 012°55'0 0.0
2016-Apr-29 13:33N 55°42' E 012°56'0 0.0
2016-Apr-29 12:33N 55°42' E 012°56'0 0.0
2016-Apr-29 11:33N 55°42' E 012°56'0 0.0
2016-Apr-29 10:33N 55°42' E 012°56'0 0.0
2016-Apr-29 09:33N 55°42' E 012°56'0 0.3
2016-Apr-29 08:33N 55°42' E 012°56'8 7.5
2016-Apr-29 07:33N 55°35' E 012°50'7 6.8
2016-Apr-29 06:33N 55°29' E 012°43'8 8.3
2016-Apr-29 05:33N 55°21' E 012°41'9 9.2
2016-Apr-29 04:33N 55°16' E 012°54'1010.4
2016-Apr-29 03:33N 55°09' E 013°08'1110.7
2016-Apr-29 02:33N 55°02' E 013°22'1110.7
2016-Apr-29 01:33N 54°55' E 013°35'1610.5
2016-Apr-29 00:04N 54°44' E 013°56'510.4
2016-Apr-28 23:33N 54°42' E 014°04'1210.4
2016-Apr-28 22:24N 54°38' E 014°24'910.3
2016-Apr-28 21:33N 54°40' E 014°38'1110.4
2016-Apr-28 20:32N 54°43' E 014°56'1110.7
2016-Apr-28 19:32N 54°48' E 015°12'1110.6
2016-Apr-28 18:32N 54°54' E 015°27'1110.3
2016-Apr-28 17:27N 55°00' E 015°43'9 2.8
2016-Apr-28 14:07N 55°03' E 015°59'2 2.6
2016-Apr-28 13:27N 55°01' E 015°58'2 2.5
2016-Apr-28 12:30N 54°59' E 015°56'3 2.4
2016-Apr-28 11:10N 54°56' E 015°54'53 6.1
2016-Apr-28 02:30N 54°56' E 017°26'1110.6
2016-Apr-28 01:29N 54°58' E 017°44'1010.7
2016-Apr-28 00:34N 54°58' E 018°01'1110.6
2016-Apr-27 23:34N 54°59' E 018°20'1010.3
2016-Apr-27 22:34N 54°56' E 018°37'1110.5
2016-Apr-27 21:34N 54°50' E 018°52'9 9.2
2016-Apr-27 20:34N 54°41' E 018°59'1110.8
2016-Apr-27 19:34N 54°32' E 018°49'9 9.3
2016-Apr-27 18:34N 54°25' E 018°40'2 1.8
2016-Apr-27 17:33N 54°23' E 018°39'0 0.0
2016-Apr-27 16:33N 54°23' E 018°39'0 0.0
2016-Apr-27 15:33N 54°23' E 018°39'0 0.0
2016-Apr-27 14:33N 54°23' E 018°39'0 0.0
2016-Apr-27 13:33N 54°23' E 018°39'0 0.0
2016-Apr-27 12:33N 54°23' E 018°39'0 0.0
2016-Apr-27 11:33N 54°23' E 018°39'0 0.0
2016-Apr-27 10:33N 54°23' E 018°39'0 0.0
2016-Apr-27 09:33N 54°23' E 018°39'0 0.0
2016-Apr-27 08:33N 54°23' E 018°39'0 0.0
2016-Apr-27 07:33N 54°23' E 018°39'0 0.0
2016-Apr-27 06:33N 54°23' E 018°39'0 0.0
2016-Apr-27 05:30N 54°23' E 018°39'0 0.0
2016-Apr-27 04:33N 54°23' E 018°39'0 0.0
2016-Apr-27 03:33N 54°23' E 018°39'0 0.0
2016-Apr-27 02:33N 54°23' E 018°39'0 0.0
2016-Apr-27 01:33N 54°23' E 018°39'0 0.0
2016-Apr-27 00:33N 54°23' E 018°39'0 0.0
2016-Apr-26 23:33N 54°23' E 018°39'0 0.0
2016-Apr-26 22:33N 54°23' E 018°39'0 0.0
2016-Apr-26 21:33N 54°23' E 018°39'0 0.0
2016-Apr-26 20:33N 54°23' E 018°39'0 0.0
2016-Apr-26 19:33N 54°23' E 018°39'0 0.0
2016-Apr-26 18:33N 54°23' E 018°39'0 0.0
2016-Apr-26 17:33N 54°23' E 018°39'0 0.0
2016-Apr-26 16:33N 54°23' E 018°39'0 0.0
2016-Apr-26 15:33N 54°23' E 018°39'0 0.0
2016-Apr-26 14:33N 54°23' E 018°39'0 0.0
2016-Apr-26 13:33N 54°23' E 018°39'0 0.0
2016-Apr-26 12:33N 54°23' E 018°39'0 0.0
2016-Apr-26 11:33N 54°23' E 018°39'0 0.0
2016-Apr-26 10:33N 54°23' E 018°39'0 0.0
2016-Apr-26 09:33N 54°23' E 018°39'0 0.0
2016-Apr-26 08:33N 54°23' E 018°39'0 0.0
2016-Apr-26 07:33N 54°23' E 018°39'0 0.0
2016-Apr-26 06:33N 54°23' E 018°39'0 0.0
2016-Apr-26 05:33N 54°23' E 018°39'0 0.0
2016-Apr-26 04:30N 54°23' E 018°39'0 0.0
2016-Apr-26 03:33N 54°23' E 018°39'0 0.0
2016-Apr-26 02:33N 54°23' E 018°39'0 0.0
2016-Apr-26 01:33N 54°23' E 018°39'0 0.0
2016-Apr-26 00:33N 54°23' E 018°39'0 0.0
2016-Apr-25 23:33N 54°23' E 018°39'0 0.0
2016-Apr-25 22:33N 54°23' E 018°39'0 0.0
2016-Apr-25 21:33N 54°23' E 018°39'0 0.0
2016-Apr-25 20:33N 54°23' E 018°39'0 0.0
2016-Apr-25 19:33N 54°23' E 018°39'0 0.0
2016-Apr-25 18:33N 54°23' E 018°39'0 0.0
2016-Apr-25 17:33N 54°23' E 018°39'0 0.0
2016-Apr-25 16:33N 54°23' E 018°39'0 0.0
2016-Apr-25 15:30N 54°23' E 018°39'0 0.0
2016-Apr-25 14:33N 54°23' E 018°39'0 0.0
2016-Apr-25 13:33N 54°23' E 018°39'0 0.0
2016-Apr-25 12:33N 54°23' E 018°39'0 0.0
2016-Apr-25 11:33N 54°23' E 018°39'  
Track history (hours):
 
Tides and Currents Weather Stations Pressure Air Temp Water Temp Dewpoint Dewpoint Depression Visibility Wind Speed Wind Dir Waves Ship Positions

Carmen

Last reported at 2016-Apr-29 21:33 UTC. Time now 2016-Apr-29 21:37 UTC.
Position N 55°42' E 012°55'.

Length 228 m; draft 7.2 m.

Type: Cargo ship. MMSI: 266339000.

Date/timePositionNaut miles runAvg speedWind from/ knotsBaromVisibWave heightAir tempDewpointWater temp
2016-Apr-29 21:33N 55°42' E 012°55'0 0.0
2016-Apr-29 20:33N 55°42' E 012°55'0 0.0
2016-Apr-29 19:33N 55°42' E 012°55'0 0.0
2016-Apr-29 18:33N 55°42' E 012°55'0 0.0
2016-Apr-29 17:34N 55°42' E 012°55'0 0.0
2016-Apr-29 16:33N 55°42' E 012°55'0 0.0
2016-Apr-29 15:33N 55°42' E 012°55'0 0.0
2016-Apr-29 14:33N 55°42' E 012°55'0 0.0
2016-Apr-29 13:33N 55°42' E 012°56'0 0.0
2016-Apr-29 12:33N 55°42' E 012°56'0 0.0
2016-Apr-29 11:33N 55°42' E 012°56'0 0.0
2016-Apr-29 10:33N 55°42' E 012°56'0 0.0
2016-Apr-29 09:33N 55°42' E 012°56'0 0.3
2016-Apr-29 08:33N 55°42' E 012°56'8 7.5
2016-Apr-29 07:33N 55°35' E 012°50'7 6.8
2016-Apr-29 06:33N 55°29' E 012°43'8 8.3
2016-Apr-29 05:33N 55°21' E 012°41'9 9.2
2016-Apr-29 04:33N 55°16' E 012°54'1010.4
2016-Apr-29 03:33N 55°09' E 013°08'1110.7
2016-Apr-29 02:33N 55°02' E 013°22'1110.7
2016-Apr-29 01:33N 54°55' E 013°35'1610.5
2016-Apr-29 00:04N 54°44' E 013°56'510.4
2016-Apr-28 23:33N 54°42' E 014°04'1210.4
2016-Apr-28 22:24N 54°38' E 014°24'910.3
2016-Apr-28 21:33N 54°40' E 014°38'1110.4
2016-Apr-28 20:32N 54°43' E 014°56'1110.7
2016-Apr-28 19:32N 54°48' E 015°12'1110.6
2016-Apr-28 18:32N 54°54' E 015°27'1110.3
2016-Apr-28 17:27N 55°00' E 015°43'9 2.8
2016-Apr-28 14:07N 55°03' E 015°59'2 2.6
2016-Apr-28 13:27N 55°01' E 015°58'2 2.5
2016-Apr-28 12:30N 54°59' E 015°56'3 2.4
2016-Apr-28 11:10N 54°56' E 015°54'53 6.1
2016-Apr-28 02:30N 54°56' E 017°26'1110.6
2016-Apr-28 01:29N 54°58' E 017°44'1010.7
2016-Apr-28 00:34N 54°58' E 018°01'1110.6
2016-Apr-27 23:34N 54°59' E 018°20'1010.3
2016-Apr-27 22:34N 54°56' E 018°37'1110.5
2016-Apr-27 21:34N 54°50' E 018°52'9 9.2
2016-Apr-27 20:34N 54°41' E 018°59'1110.8
2016-Apr-27 19:34N 54°32' E 018°49'9 9.3
2016-Apr-27 18:34N 54°25' E 018°40'2 1.8
2016-Apr-27 17:33N 54°23' E 018°39'0 0.0
2016-Apr-27 16:33N 54°23' E 018°39'0 0.0
2016-Apr-27 15:33N 54°23' E 018°39'0 0.0
2016-Apr-27 14:33N 54°23' E 018°39'0 0.0
2016-Apr-27 13:33N 54°23' E 018°39'0 0.0
2016-Apr-27 12:33N 54°23' E 018°39'0 0.0
2016-Apr-27 11:33N 54°23' E 018°39'0 0.0
2016-Apr-27 10:33N 54°23' E 018°39'0 0.0
2016-Apr-27 09:33N 54°23' E 018°39'0 0.0
2016-Apr-27 08:33N 54°23' E 018°39'0 0.0
2016-Apr-27 07:33N 54°23' E 018°39'0 0.0
2016-Apr-27 06:33N 54°23' E 018°39'0 0.0
2016-Apr-27 05:30N 54°23' E 018°39'0 0.0
2016-Apr-27 04:33N 54°23' E 018°39'0 0.0
2016-Apr-27 03:33N 54°23' E 018°39'0 0.0
2016-Apr-27 02:33N 54°23' E 018°39'0 0.0
2016-Apr-27 01:33N 54°23' E 018°39'0 0.0
2016-Apr-27 00:33N 54°23' E 018°39'0 0.0
2016-Apr-26 23:33N 54°23' E 018°39'0 0.0
2016-Apr-26 22:33N 54°23' E 018°39'0 0.0
2016-Apr-26 21:33N 54°23' E 018°39'0 0.0
2016-Apr-26 20:33N 54°23' E 018°39'0 0.0
2016-Apr-26 19:33N 54°23' E 018°39'0 0.0
2016-Apr-26 18:33N 54°23' E 018°39'0 0.0
2016-Apr-26 17:33N 54°23' E 018°39'0 0.0
2016-Apr-26 16:33N 54°23' E 018°39'0 0.0
2016-Apr-26 15:33N 54°23' E 018°39'0 0.0
2016-Apr-26 14:33N 54°23' E 018°39'0 0.0
2016-Apr-26 13:33N 54°23' E 018°39'0 0.0
2016-Apr-26 12:33N 54°23' E 018°39'0 0.0
2016-Apr-26 11:33N 54°23' E 018°39'0 0.0
2016-Apr-26 10:33N 54°23' E 018°39'0 0.0
2016-Apr-26 09:33N 54°23' E 018°39'0 0.0
2016-Apr-26 08:33N 54°23' E 018°39'0 0.0
2016-Apr-26 07:33N 54°23' E 018°39'0 0.0
2016-Apr-26 06:33N 54°23' E 018°39'0 0.0
2016-Apr-26 05:33N 54°23' E 018°39'0 0.0
2016-Apr-26 04:30N 54°23' E 018°39'0 0.0
2016-Apr-26 03:33N 54°23' E 018°39'0 0.0
2016-Apr-26 02:33N 54°23' E 018°39'0 0.0
2016-Apr-26 01:33N 54°23' E 018°39'0 0.0
2016-Apr-26 00:33N 54°23' E 018°39'0 0.0
2016-Apr-25 23:33N 54°23' E 018°39'0 0.0
2016-Apr-25 22:33N 54°23' E 018°39'0 0.0
2016-Apr-25 21:33N 54°23' E 018°39'0 0.0
2016-Apr-25 20:33N 54°23' E 018°39'0 0.0
2016-Apr-25 19:33N 54°23' E 018°39'0 0.0
2016-Apr-25 18:33N 54°23' E 018°39'0 0.0
2016-Apr-25 17:33N 54°23' E 018°39'0 0.0
2016-Apr-25 16:33N 54°23' E 018°39'0 0.0
2016-Apr-25 15:30N 54°23' E 018°39'0 0.0
2016-Apr-25 14:33N 54°23' E 018°39'0 0.0
2016-Apr-25 13:33N 54°23' E 018°39'0 0.0
2016-Apr-25 12:33N 54°23' E 018°39'0 0.0
2016-Apr-25 11:33N 54°23' E 018°39'  

Dump ship's entire track history